createdAt,value
2019-04-26T00:00:13.872Z,74.92
2019-04-26T00:04:24.074Z,76.41
2019-04-26T00:08:33.003Z,76.59
2019-04-26T00:12:49.547Z,75.92
2019-04-26T00:17:23.009Z,75.21
2019-04-26T00:21:31.453Z,75.13
2019-04-26T00:25:39.989Z,74.94
2019-04-26T00:29:47.687Z,75.92
2019-04-26T00:33:55.352Z,75.83
2019-04-26T00:38:03.418Z,76.10
2019-04-26T00:42:12.175Z,75.50
2019-04-26T00:46:23.662Z,75.97
2019-04-26T00:50:33.287Z,77.00
2019-04-26T00:54:42.024Z,77.50
2019-04-26T00:58:50.251Z,76.27
2019-04-26T01:02:58.353Z,76.75
2019-04-26T01:07:06.181Z,76.73
2019-04-26T01:11:16.178Z,77.30
2019-04-26T01:15:26.635Z,78.05
2019-04-26T01:19:35.628Z,77.78
2019-04-26T01:23:46.639Z,77.73
2019-04-26T01:27:54.979Z,77.68
2019-04-26T01:32:08.276Z,77.35
2019-04-26T01:36:18.261Z,77.52
2019-04-26T01:40:28.360Z,76.80
2019-04-26T01:44:46.235Z,77.29
2019-04-26T01:49:06.567Z,77.46
2019-04-26T01:53:14.279Z,77.83
2019-04-26T01:57:25.381Z,77.73
2019-04-26T02:01:55.047Z,78.52
2019-04-26T02:06:03.778Z,77.47
2019-04-26T02:10:14.091Z,76.65
2019-04-26T02:14:22.664Z,76.12
2019-04-26T02:18:33.604Z,76.48
2019-04-26T02:23:13.691Z,76.36
2019-04-26T02:27:24.886Z,76.11
2019-04-26T02:31:37.234Z,75.64
2019-04-26T02:35:43.951Z,77.06
2019-04-26T02:39:52.794Z,77.33
2019-04-26T02:44:03.604Z,76.98
2019-04-26T02:48:35.797Z,76.69
2019-04-26T02:53:16.626Z,76.21
2019-04-26T02:57:36.650Z,75.97
2019-04-26T03:01:45.578Z,77.56
2019-04-26T03:05:55.304Z,77.56
2019-04-26T03:10:03.952Z,78.27
2019-04-26T03:14:34.481Z,77.98
2019-04-26T03:18:55.696Z,78.22
2019-04-26T03:23:41.335Z,77.39
2019-04-26T03:28:15.041Z,78.05
2019-04-26T03:32:54.162Z,77.84
2019-04-26T03:37:21.999Z,78.49
2019-04-26T03:42:06.991Z,78.20
2019-04-26T03:46:45.160Z,77.83
2019-04-26T03:51:05.264Z,77.22
2019-04-26T03:55:51.931Z,76.44
2019-04-26T04:00:28.637Z,77.07
2019-04-26T04:04:46.738Z,77.84
2019-04-26T04:09:03.238Z,77.36
2019-04-26T04:13:40.872Z,77.34
2019-04-26T04:17:59.970Z,77.23
2019-04-26T04:22:10.194Z,76.92
2019-04-26T04:26:23.525Z,78.57
2019-04-26T04:31:15.063Z,78.23
2019-04-26T04:35:25.837Z,78.49
2019-04-26T04:39:46.486Z,78.03
2019-04-26T04:44:11.859Z,76.95
2019-04-26T04:48:35.115Z,77.29
2019-04-26T04:53:30.916Z,77.50
2019-04-26T04:58:04.833Z,76.35
2019-04-26T05:02:27.480Z,75.57
2019-04-26T05:07:06.769Z,75.12
2019-04-26T05:11:20.895Z,74.30
2019-04-26T05:15:51.073Z,72.75
2019-04-26T05:20:15.719Z,71.35
2019-04-26T05:24:42.350Z,70.91
2019-04-26T05:29:19.548Z,69.56
2019-04-26T05:34:08.212Z,70.66
2019-04-26T05:38:51.205Z,68.90
2019-04-26T05:43:39.744Z,69.21
2019-04-26T05:48:11.982Z,66.89
2019-04-26T05:53:05.337Z,65.97
2019-04-26T05:57:56.787Z,64.94
2019-04-26T06:02:59.074Z,63.24
2019-04-26T06:07:32.395Z,64.66
2019-04-26T06:11:54.633Z,64.30
2019-04-26T06:16:21.796Z,63.86
2019-04-26T06:20:55.917Z,64.19
2019-04-26T06:25:32.669Z,63.46
2019-04-26T06:30:01.345Z,61.57
2019-04-26T06:34:20.538Z,61.03
2019-04-26T06:39:28.420Z,61.27
2019-04-26T06:43:44.909Z,59.85
2019-04-26T06:48:01.840Z,58.63
2019-04-26T06:52:13.794Z,58.14
2019-04-26T06:56:44.239Z,58.22
2019-04-26T07:01:16.299Z,56.94
2019-04-26T07:05:29.422Z,57.02
2019-04-26T07:09:59.095Z,56.39
2019-04-26T07:14:48.743Z,55.94
2019-04-26T07:19:19.800Z,54.99
2019-04-26T07:24:05.509Z,55.24
2019-04-26T07:28:49.165Z,55.24
2019-04-26T07:33:33.884Z,55.33
2019-04-26T07:38:11.204Z,53.46
2019-04-26T07:43:03.571Z,51.58
2019-04-26T07:48:19.634Z,53.69
2019-04-26T07:53:22.993Z,52.13
2019-04-26T07:58:26.628Z,49.49
2019-04-26T08:03:00.219Z,49.49
2019-04-26T08:07:13.562Z,49.70
2019-04-26T08:11:29.461Z,48.85
2019-04-26T08:16:08.841Z,46.57
2019-04-26T08:20:39.007Z,46.39
2019-04-26T08:24:49.425Z,45.80
2019-04-26T08:29:00.595Z,41.59
2019-04-26T08:33:14.704Z,40.85
2019-04-26T08:37:36.615Z,41.62
2019-04-26T08:41:44.793Z,40.04
2019-04-26T08:46:26.821Z,40.11
2019-04-26T08:50:42.181Z,41.89
2019-04-26T08:54:54.921Z,40.07
2019-04-26T08:59:10.058Z,39.95
2019-04-26T09:03:51.624Z,40.86
2019-04-26T09:08:03.990Z,44.10
2019-04-26T09:12:23.143Z,39.89
2019-04-26T09:16:28.968Z,39.13
2019-04-26T09:20:38.550Z,36.56
2019-04-26T09:25:02.916Z,38.24
2019-04-26T09:29:40.016Z,37.96
2019-04-26T09:33:51.135Z,37.83
2019-04-26T09:37:59.105Z,37.40
2019-04-26T09:42:14.265Z,37.98
2019-04-26T09:46:44.455Z,38.28
2019-04-26T09:50:53.919Z,38.17
2019-04-26T09:55:01.836Z,38.38
2019-04-26T09:59:09.826Z,37.67
2019-04-26T10:03:17.648Z,35.47
2019-04-26T10:07:26.021Z,36.41
2019-04-26T10:11:43.581Z,38.76
2019-04-26T10:16:11.765Z,36.46
2019-04-26T10:20:19.796Z,39.14
2019-04-26T10:24:27.629Z,38.60
2019-04-26T10:28:35.422Z,36.27
2019-04-26T10:32:43.454Z,38.43
2019-04-26T10:36:53.226Z,38.33
2019-04-26T10:41:01.125Z,37.85
2019-04-26T10:45:14.528Z,39.02
2019-04-26T10:49:40.995Z,40.18
2019-04-26T10:53:56.877Z,40.16
2019-04-26T10:58:15.015Z,38.94
2019-04-26T11:02:23.689Z,38.33
2019-04-26T11:06:31.574Z,40.17
2019-04-26T11:10:48.407Z,40.44
2019-04-26T11:14:49.251Z,39.58
2019-04-26T11:19:01.220Z,38.40
2019-04-26T11:23:08.118Z,39.05
2019-04-26T11:27:17.807Z,40.04
2019-04-26T11:31:27.582Z,40.69
2019-04-26T11:35:35.706Z,39.04
2019-04-26T11:39:43.400Z,40.10
2019-04-26T11:43:52.963Z,38.60
2019-04-26T11:48:03.283Z,37.21
2019-04-26T11:52:11.725Z,38.46
2019-04-26T11:56:20.095Z,37.24
2019-04-26T12:00:32.593Z,38.51
2019-04-26T12:04:59.962Z,36.16
2019-04-26T12:09:19.450Z,37.28
2019-04-26T12:13:27.321Z,37.50
2019-04-26T12:17:36.841Z,35.15
2019-04-26T12:21:44.902Z,36.14
2019-04-26T12:25:54.447Z,35.60
2019-04-26T12:30:02.170Z,35.45
2019-04-26T12:34:14.081Z,35.15
2019-04-26T12:38:20.230Z,37.08
2019-04-26T12:42:28.246Z,39.46
2019-04-26T12:46:44.988Z,37.61
2019-04-26T12:50:52.806Z,36.67
2019-04-26T12:55:00.601Z,37.59
2019-04-26T12:59:08.292Z,39.02
2019-04-26T13:03:20.382Z,38.05
2019-04-26T13:07:26.360Z,37.74
2019-04-26T13:11:52.837Z,39.32
2019-04-26T13:16:09.629Z,38.17
2019-04-26T13:20:17.481Z,39.98
2019-04-26T13:24:25.163Z,38.37
2019-04-26T13:28:32.973Z,39.08
2019-04-26T13:32:40.570Z,39.44
2019-04-26T13:36:52.757Z,40.21
2019-04-26T13:41:04.805Z,39.08
2019-04-26T13:45:27.173Z,41.69
2019-04-26T13:49:42.444Z,42.19
2019-04-26T13:53:50.141Z,40.47
2019-04-26T13:57:57.962Z,40.33
2019-04-26T14:02:11.663Z,41.07
2019-04-26T14:06:15.620Z,42.97
2019-04-26T14:10:23.464Z,42.56
2019-04-26T14:14:34.143Z,43.66
2019-04-26T14:18:42.126Z,42.50
2019-04-26T14:22:59.202Z,42.76
2019-04-26T14:27:25.877Z,44.33
2019-04-26T14:31:35.422Z,43.98
2019-04-26T14:35:46.228Z,44.28
2019-04-26T14:39:55.350Z,42.96
2019-04-26T14:44:14.804Z,44.54
2019-04-26T14:48:20.563Z,43.03
2019-04-26T14:52:24.086Z,44.42
2019-04-26T14:56:33.167Z,45.65
2019-04-26T15:00:43.867Z,45.98
2019-04-26T15:04:58.163Z,46.10
2019-04-26T15:09:16.969Z,46.51
2019-04-26T15:13:20.796Z,47.10
2019-04-26T15:17:26.767Z,48.26
2019-04-26T15:21:34.595Z,49.20
2019-04-26T15:25:48.303Z,50.06
2019-04-26T15:29:52.740Z,49.92
2019-04-26T15:34:00.461Z,50.81
2019-04-26T15:38:08.706Z,52.08
2019-04-26T15:42:30.727Z,51.30
2019-04-26T15:47:03.253Z,52.73
2019-04-26T15:51:10.430Z,52.88
2019-04-26T15:55:18.196Z,53.21
2019-04-26T15:59:26.226Z,54.02
2019-04-26T16:03:36.800Z,55.21
2019-04-26T16:07:43.473Z,55.38
2019-04-26T16:11:55.296Z,56.24
2019-04-26T16:16:03.817Z,57.71
2019-04-26T16:20:13.631Z,57.82
2019-04-26T16:24:24.184Z,58.25
2019-04-26T16:28:38.271Z,58.49
2019-04-26T16:33:08.628Z,57.55
2019-04-26T16:37:21.708Z,58.10
2019-04-26T16:41:27.139Z,58.45
2019-04-26T16:45:37.228Z,57.79
2019-04-26T16:49:46.666Z,58.07
2019-04-26T16:54:06.802Z,58.86
2019-04-26T16:58:04.624Z,59.04
2019-04-26T17:02:13.338Z,59.43
2019-04-26T17:06:23.268Z,59.72
2019-04-26T17:10:32.746Z,59.87
2019-04-26T17:14:45.355Z,60.52
2019-04-26T17:18:50.326Z,60.77
2019-04-26T17:23:30.132Z,60.81
2019-04-26T17:27:35.105Z,61.37
2019-04-26T17:31:43.350Z,61.33
2019-04-26T17:35:51.680Z,61.64
2019-04-26T17:40:00.860Z,62.36
2019-04-26T17:44:11.210Z,61.80
2019-04-26T17:48:18.835Z,62.29
2019-04-26T17:52:31.226Z,61.20
2019-04-26T17:56:39.580Z,61.18
2019-04-26T18:00:47.539Z,63.50
2019-04-26T18:05:00.618Z,62.72
2019-04-26T18:09:05.505Z,61.93
2019-04-26T18:13:16.378Z,61.87
2019-04-26T18:17:41.758Z,61.16
2019-04-26T18:22:07.508Z,61.86
2019-04-26T18:26:17.360Z,60.86
2019-04-26T18:30:26.727Z,62.06
2019-04-26T18:34:40.101Z,63.55
2019-04-26T18:38:48.473Z,63.70
2019-04-26T18:42:55.124Z,63.02
2019-04-26T18:47:14.657Z,62.85
2019-04-26T18:51:23.628Z,63.10
2019-04-26T18:55:34.391Z,64.54
2019-04-26T18:59:44.762Z,65.48
2019-04-26T19:03:53.936Z,65.36
2019-04-26T19:08:02.622Z,64.09
2019-04-26T19:12:11.947Z,64.52
2019-04-26T19:16:41.791Z,65.53
2019-04-26T19:21:03.737Z,66.46
2019-04-26T19:25:20.907Z,66.61
2019-04-26T19:29:29.294Z,65.40
2019-04-26T19:33:31.483Z,67.10
2019-04-26T19:37:39.703Z,66.93
2019-04-26T19:41:47.415Z,67.49
2019-04-26T19:46:25.219Z,68.37
2019-04-26T19:50:55.551Z,68.59
2019-04-26T19:55:13.232Z,67.99
2019-04-26T19:59:23.308Z,68.12
2019-04-26T20:03:32.064Z,67.13
2019-04-26T20:07:41.602Z,68.06
2019-04-26T20:11:51.409Z,67.89
2019-04-26T20:16:02.669Z,67.20
2019-04-26T20:20:18.893Z,66.62
2019-04-26T20:24:19.560Z,67.40
2019-04-26T20:28:29.744Z,68.57
2019-04-26T20:32:38.639Z,68.42
2019-04-26T20:36:47.774Z,68.59
2019-04-26T20:40:55.696Z,69.44
2019-04-26T20:45:04.461Z,70.25
2019-04-26T20:49:12.953Z,70.29
2019-04-26T20:53:21.716Z,70.23
2019-04-26T20:57:31.343Z,69.66
2019-04-26T21:01:43.560Z,70.00
2019-04-26T21:05:52.826Z,69.99
2019-04-26T21:09:59.781Z,70.16
2019-04-26T21:14:08.734Z,70.69
2019-04-26T21:18:16.835Z,70.68
2019-04-26T21:22:28.397Z,71.63
2019-04-26T21:26:56.090Z,72.46
2019-04-26T21:31:28.766Z,72.39
2019-04-26T21:36:11.191Z,72.46
2019-04-26T21:40:43.847Z,72.54
2019-04-26T21:44:54.820Z,72.64
2019-04-26T21:49:03.624Z,72.61
2019-04-26T21:53:13.240Z,72.12
2019-04-26T21:57:25.131Z,72.50
2019-04-26T22:01:33.086Z,72.64
2019-04-26T22:05:43.930Z,73.57
2019-04-26T22:10:25.997Z,73.50
2019-04-26T22:14:35.740Z,74.10
2019-04-26T22:19:01.137Z,73.67
2019-04-26T22:23:33.100Z,73.54
2019-04-26T22:27:43.679Z,72.94
2019-04-26T22:31:54.609Z,73.21
2019-04-26T22:36:01.496Z,72.22
2019-04-26T22:40:10.527Z,72.56
2019-04-26T22:44:31.317Z,73.00
2019-04-26T22:48:39.067Z,72.83
2019-04-26T22:52:51.591Z,73.06
2019-04-26T22:56:56.664Z,72.85
2019-04-26T23:01:06.216Z,72.67
2019-04-26T23:05:15.117Z,73.20
2019-04-26T23:09:23.814Z,72.58
2019-04-26T23:13:51.024Z,73.02
2019-04-26T23:18:16.555Z,73.01
2019-04-26T23:22:30.795Z,74.60
2019-04-26T23:26:37.441Z,75.80
2019-04-26T23:30:44.598Z,76.47
2019-04-26T23:34:53.520Z,76.11
2019-04-26T23:39:03.264Z,76.06
2019-04-26T23:43:13.063Z,75.68
2019-04-26T23:47:23.180Z,75.87
2019-04-26T23:51:30.476Z,73.95
2019-04-26T23:55:42.499Z,74.88
2019-04-26T23:59:51.038Z,72.83
